Time;durP1;ratioP1;P1;durP2;ratioP2;P2;SDS_P1;SDS_P2;PMS_P1;PMS_P2;Temp;Humidity;BMP_temperature;BMP_pressure;BME280_temperature;BME280_humidity;BME280_pressure;Samples;Min_cycle;Max_cycle;Signal;HPM_P1;HPM_P2
2022/05/14 00:01:18;;;;;;;18.25;5.82;;;12.30;99.90;;;;;;5081292;28;20039;-61
2022/05/14 00:03:44;;;;;;;20.48;5.70;;;12.30;99.90;;;;;;5097569;27;20077;-61
2022/05/14 00:06:13;;;;;;;18.05;5.78;;;12.30;99.90;;;;;;5084366;27;20040;-61
2022/05/14 00:08:40;;;;;;;20.13;6.03;;;12.30;99.90;;;;;;5103925;27;20039;-61
2022/05/14 00:13:56;;;;;;;22.13;5.90;;;12.30;99.90;;;;;;5043441;27;20589;-61
2022/05/14 00:16:23;;;;;;;18.92;6.10;;;12.30;99.90;;;;;;5076522;27;20318;-61
2022/05/14 00:18:51;;;;;;;15.45;5.03;;;12.30;99.90;;;;;;5100643;27;20653;-61
2022/05/14 00:21:19;;;;;;;21.00;5.80;;;12.30;99.90;;;;;;5099288;28;20081;-61
2022/05/14 00:23:45;;;;;;;22.50;6.03;;;12.30;99.90;;;;;;5078010;27;20489;-61
2022/05/14 00:26:11;;;;;;;23.83;6.60;;;12.30;99.90;;;;;;5097060;28;20072;-61
2022/05/14 00:28:37;;;;;;;21.73;5.90;;;12.30;99.90;;;;;;5108099;28;20539;-60
2022/05/14 00:31:03;;;;;;;21.35;5.45;;;12.30;99.90;;;;;;5079524;28;20035;-61
2022/05/14 00:33:29;;;;;;;26.10;6.22;;;12.20;99.90;;;;;;5111203;28;20057;-61
2022/05/14 00:35:56;;;;;;;20.77;5.60;;;12.20;99.90;;;;;;5096603;28;20038;-62
2022/05/14 00:38:21;;;;;;;21.27;5.70;;;12.10;99.90;;;;;;5099625;28;20051;-61
2022/05/14 00:40:55;;;;;;;20.15;5.20;;;12.10;99.90;;;;;;5100327;28;20047;-60
2022/05/14 00:43:21;;;;;;;24.52;6.28;;;12.10;99.90;;;;;;5114096;28;20058;-61
2022/05/14 00:45:58;;;;;;;21.35;5.65;;;12.10;99.90;;;;;;5097476;28;20066;-61
2022/05/14 00:48:28;;;;;;;26.15;7.05;;;12.10;99.90;;;;;;5095439;28;20047;-61
2022/05/14 00:50:57;;;;;;;22.83;6.63;;;12.10;99.90;;;;;;5098862;28;20534;-61
2022/05/14 00:53:40;;;;;;;24.75;6.82;;;12.10;99.90;;;;;;5105961;27;20050;-61
2022/05/14 00:56:20;;;;;;;31.45;6.80;;;12.10;99.90;;;;;;5085846;27;20067;-61
2022/05/14 00:58:55;;;;;;;30.48;6.53;;;12.10;99.90;;;;;;5108060;27;20047;-61
2022/05/14 01:01:21;;;;;;;25.10;6.05;;;12.10;99.90;;;;;;5101339;27;20043;-61
2022/05/14 01:03:47;;;;;;;23.60;6.97;;;12.10;99.90;;;;;;5109160;27;20049;-62
2022/05/14 01:06:17;;;;;;;23.80;6.45;;;12.10;99.90;;;;;;5097284;27;20076;-61
2022/05/14 01:08:43;;;;;;;23.02;6.72;;;12.10;99.90;;;;;;5105282;27;20162;-60
2022/05/14 01:11:09;;;;;;;25.08;5.93;;;12.00;99.90;;;;;;5105592;27;20577;-60
2022/05/14 01:13:35;;;;;;;22.45;6.38;;;11.90;99.90;;;;;;5119975;27;20039;-61
2022/05/14 01:16:03;;;;;;;25.48;7.32;;;11.90;99.90;;;;;;5114554;27;20053;-61
2022/05/14 01:18:32;;;;;;;27.77;7.10;;;11.90;99.90;;;;;;5104364;27;20028;-61
2022/05/14 01:21:20;;;;;;;24.33;6.80;;;11.90;99.90;;;;;;5106506;27;21341;-61
2022/05/14 01:27:03;;;;;;;28.90;7.25;;;11.80;99.90;;;;;;5102064;27;20538;-61
2022/05/14 01:29:29;;;;;;;25.58;6.65;;;11.80;99.90;;;;;;5105425;27;20036;-61
2022/05/14 01:31:56;;;;;;;26.95;7.05;;;11.70;99.90;;;;;;5075257;27;20062;-62
2022/05/14 01:34:25;;;;;;;29.42;7.82;;;11.70;99.90;;;;;;5123102;27;20406;-61
2022/05/14 01:36:51;;;;;;;30.15;7.60;;;11.70;99.90;;;;;;5081414;27;20118;-62
2022/05/14 01:39:17;;;;;;;35.47;7.88;;;11.70;99.90;;;;;;5101241;27;20031;-62
2022/05/14 01:41:43;;;;;;;29.73;7.75;;;11.80;99.90;;;;;;5119654;27;20050;-61
2022/05/14 01:44:09;;;;;;;28.63;7.03;;;11.80;99.90;;;;;;5101432;27;20035;-62
2022/05/14 01:46:35;;;;;;;28.27;8.23;;;11.80;99.90;;;;;;5104877;27;20061;-61
2022/05/14 01:49:01;;;;;;;36.10;8.38;;;11.80;99.90;;;;;;5105021;27;20057;-61
2022/05/14 01:51:29;;;;;;;28.75;7.70;;;11.80;99.90;;;;;;5120301;27;20114;-61
2022/05/14 01:53:54;;;;;;;32.28;7.95;;;11.80;99.90;;;;;;5081218;28;20050;-62
2022/05/14 01:56:20;;;;;;;26.30;7.78;;;11.80;99.90;;;;;;5081525;28;20497;-61
2022/05/14 01:58:46;;;;;;;26.15;7.55;;;11.70;99.90;;;;;;5099813;28;20097;-62
2022/05/14 02:01:27;;;;;;;36.53;8.50;;;11.80;99.90;;;;;;5080479;28;20057;-62
2022/05/14 02:03:57;;;;;;;34.70;9.05;;;11.80;99.90;;;;;;5092627;28;20040;-62
2022/05/14 02:06:24;;;;;;;34.05;8.93;;;11.70;99.90;;;;;;5098106;28;20113;-62
2022/05/14 02:08:50;;;;;;;34.25;8.45;;;11.70;99.90;;;;;;5098720;28;20096;-62
2022/05/14 02:11:16;;;;;;;32.28;9.48;;;11.70;99.90;;;;;;5081491;28;20048;-62
2022/05/14 02:13:44;;;;;;;28.95;8.98;;;11.70;99.90;;;;;;5095499;28;20054;-62
2022/05/14 02:16:10;;;;;;;37.47;9.77;;;11.70;99.90;;;;;;5075708;28;20398;-62
2022/05/14 02:18:37;;;;;;;35.50;10.07;;;11.70;99.90;;;;;;5083784;28;20036;-61
2022/05/14 02:21:04;;;;;;;35.22;9.15;;;11.60;99.90;;;;;;5096495;28;20339;-60
2022/05/14 02:23:30;;;;;;;32.83;9.48;;;11.60;99.90;;;;;;5093311;28;20043;-60
2022/05/14 02:25:56;;;;;;;41.50;10.40;;;11.60;99.90;;;;;;5099235;28;20053;-59
2022/05/14 02:28:21;;;;;;;36.72;10.50;;;11.50;99.90;;;;;;5091093;28;20077;-61
2022/05/14 02:30:47;;;;;;;37.33;9.48;;;11.40;99.90;;;;;;5099709;28;20100;-62
2022/05/14 02:33:13;;;;;;;42.10;10.57;;;11.40;99.90;;;;;;5092999;28;20036;-62
2022/05/14 02:35:40;;;;;;;37.03;11.07;;;11.30;99.90;;;;;;5081287;28;20097;-61
2022/05/14 02:38:06;;;;;;;37.17;9.75;;;11.30;99.90;;;;;;5097452;27;20386;-62
2022/05/14 02:40:32;;;;;;;40.78;11.35;;;11.30;99.90;;;;;;5102984;28;20051;-62
2022/05/14 02:42:57;;;;;;;31.08;10.40;;;11.20;99.90;;;;;;5097281;28;20044;-61
2022/05/14 02:45:23;;;;;;;46.92;12.48;;;11.20;99.90;;;;;;5091192;28;20487;-61
2022/05/14 02:47:49;;;;;;;37.22;12.15;;;11.10;99.90;;;;;;5095836;28;20049;-61
2022/05/14 02:50:15;;;;;;;38.13;11.38;;;11.10;99.90;;;;;;5091122;28;20048;-61
2022/05/14 02:52:41;;;;;;;41.03;12.05;;;11.00;99.90;;;;;;5103134;27;20089;-62
2022/05/14 02:55:08;;;;;;;43.83;11.40;;;10.90;99.90;;;;;;5085271;27;20530;-62
2022/05/14 02:57:35;;;;;;;50.40;12.30;;;11.00;99.90;;;;;;5085602;27;20126;-62
2022/05/14 03:00:01;;;;;;;51.58;11.90;;;11.00;99.90;;;;;;5094860;27;20035;-62
2022/05/14 03:02:27;;;;;;;50.03;12.02;;;11.00;99.90;;;;;;5097888;27;20349;-60
2022/05/14 03:04:53;;;;;;;47.08;11.63;;;11.00;99.90;;;;;;5101803;27;20126;-61
2022/05/14 03:07:19;;;;;;;42.05;12.05;;;11.00;99.90;;;;;;5099517;27;20473;-61
2022/05/14 03:09:45;;;;;;;38.28;12.98;;;10.90;99.90;;;;;;5080464;28;20105;-61
2022/05/14 03:12:13;;;;;;;48.30;12.40;;;10.90;99.90;;;;;;5097600;27;20043;-62
2022/05/14 03:14:39;;;;;;;45.30;12.93;;;10.80;99.90;;;;;;5097464;28;20437;-62
2022/05/14 03:17:06;;;;;;;42.60;12.30;;;10.90;99.90;;;;;;5104304;27;20095;-61
2022/05/14 03:19:32;;;;;;;51.80;12.40;;;10.90;99.90;;;;;;5104527;27;20039;-62
2022/05/14 03:21:59;;;;;;;49.85;13.05;;;10.90;99.90;;;;;;5083033;28;20418;-62
2022/05/14 03:24:25;;;;;;;47.38;14.25;;;10.80;99.90;;;;;;5079025;27;20383;-63
2022/05/14 03:26:51;;;;;;;50.45;13.43;;;10.80;99.90;;;;;;5083820;27;20409;-62
2022/05/14 03:29:17;;;;;;;47.25;13.48;;;10.80;99.90;;;;;;5104588;28;20027;-62
2022/05/14 03:31:43;;;;;;;49.97;14.18;;;10.70;99.90;;;;;;5081530;27;20043;-62
2022/05/14 03:34:11;;;;;;;51.03;14.05;;;10.80;99.90;;;;;;5101597;27;20091;-60
2022/05/14 03:36:37;;;;;;;52.72;14.60;;;10.70;99.90;;;;;;5095841;27;20058;-61
2022/05/14 03:39:03;;;;;;;50.25;13.32;;;10.80;99.90;;;;;;5097489;27;20417;-61
2022/05/14 03:41:29;;;;;;;57.55;14.50;;;10.70;99.90;;;;;;5096215;27;20035;-61
2022/05/14 03:43:55;;;;;;;53.05;13.55;;;10.60;99.90;;;;;;5114442;27;20122;-61
2022/05/14 03:46:21;;;;;;;48.97;13.73;;;10.70;99.90;;;;;;5094720;27;20065;-61
2022/05/14 03:48:46;;;;;;;45.17;13.40;;;10.60;99.90;;;;;;5101752;27;20299;-61
2022/05/14 03:51:12;;;;;;;48.45;13.27;;;10.60;99.90;;;;;;5102103;27;20050;-61
2022/05/14 03:53:38;;;;;;;48.05;12.85;;;10.60;99.90;;;;;;5078892;27;20047;-61
2022/05/14 03:56:05;;;;;;;51.22;13.70;;;10.60;99.90;;;;;;5097093;27;20130;-62
2022/05/14 03:58:31;;;;;;;46.42;13.32;;;10.60;99.90;;;;;;5100349;27;20035;-62
2022/05/14 04:00:58;;;;;;;46.10;13.18;;;10.60;99.90;;;;;;5098353;28;20047;-61
2022/05/14 04:03:24;;;;;;;53.33;15.00;;;10.50;99.90;;;;;;5095127;27;20092;-62
2022/05/14 04:05:51;;;;;;;43.95;13.25;;;10.50;99.90;;;;;;5085090;28;20051;-62
2022/05/14 04:08:17;;;;;;;46.90;13.32;;;10.60;99.90;;;;;;5095875;28;20070;-63
2022/05/14 04:10:44;;;;;;;43.50;12.23;;;10.60;99.90;;;;;;5097767;27;20584;-62
2022/05/14 04:13:11;;;;;;;49.10;13.98;;;10.60;99.90;;;;;;5099779;27;20389;-62
2022/05/14 04:15:38;;;;;;;47.03;13.05;;;10.70;99.90;;;;;;5103163;27;20104;-62
2022/05/14 04:18:04;;;;;;;50.38;12.45;;;10.70;99.90;;;;;;5103397;27;20532;-62
2022/05/14 04:20:30;;;;;;;53.47;13.50;;;10.70;99.90;;;;;;5102601;27;20043;-62
2022/05/14 04:23:04;;;;;;;57.22;13.82;;;10.60;99.90;;;;;;5119180;27;20545;-62
2022/05/14 04:25:30;;;;;;;45.78;13.43;;;10.70;99.90;;;;;;5103688;27;20458;-62
2022/05/14 04:27:55;;;;;;;51.35;14.13;;;10.60;99.90;;;;;;5104842;28;20031;-62
2022/05/14 04:30:21;;;;;;;56.85;14.75;;;10.50;99.90;;;;;;5085622;28;20040;-62
2022/05/14 04:32:47;;;;;;;47.08;14.48;;;10.60;99.90;;;;;;5098095;28;20043;-62
2022/05/14 04:35:15;;;;;;;45.90;13.95;;;10.60;99.90;;;;;;5117294;28;20038;-62
2022/05/14 04:37:40;;;;;;;52.33;12.90;;;10.60;99.90;;;;;;5114371;28;20073;-61
2022/05/14 04:40:08;;;;;;;46.45;13.07;;;10.60;99.90;;;;;;5096862;28;20035;-61
2022/05/14 04:42:38;;;;;;;46.50;13.20;;;10.70;99.90;;;;;;5099167;28;20071;-60
2022/05/14 04:45:05;;;;;;;48.97;12.27;;;10.70;99.90;;;;;;5083655;28;20524;-60
2022/05/14 04:47:30;;;;;;;50.78;13.82;;;10.70;99.90;;;;;;5083004;28;20082;-60
2022/05/14 04:49:56;;;;;;;58.65;13.70;;;10.70;99.90;;;;;;5082285;28;20067;-60
2022/05/14 04:52:22;;;;;;;41.03;11.38;;;10.80;99.90;;;;;;5098799;28;20047;-62
2022/05/14 04:54:48;;;;;;;45.88;12.45;;;10.90;99.90;;;;;;5099151;28;20050;-60
2022/05/14 04:57:14;;;;;;;49.72;12.65;;;10.90;99.90;;;;;;5061488;28;20082;-60
2022/05/14 04:59:40;;;;;;;49.00;11.25;;;10.90;99.90;;;;;;5078872;28;20364;-61
2022/05/14 05:04:50;;;;;;;47.38;11.65;;;11.00;99.90;;;;;;5095185;28;20054;-61
2022/05/14 05:07:16;;;;;;;46.88;11.82;;;11.10;99.90;;;;;;5109954;28;20036;-61
2022/05/14 05:09:42;;;;;;;45.75;10.90;;;11.10;99.90;;;;;;5090578;28;20051;-61
2022/05/14 05:12:08;;;;;;;38.90;10.07;;;11.20;99.90;;;;;;5092550;28;20044;-61
2022/05/14 05:14:34;;;;;;;44.20;10.07;;;11.30;99.90;;;;;;5100292;28;20043;-61
2022/05/14 05:16:59;;;;;;;43.65;9.77;;;11.50;99.90;;;;;;5109173;28;20084;-62
2022/05/14 05:19:25;;;;;;;46.42;10.93;;;11.50;99.90;;;;;;5078130;28;20038;-61
2022/05/14 05:21:51;;;;;;;37.50;10.25;;;11.60;99.90;;;;;;5087042;28;20047;-61
2022/05/14 05:24:17;;;;;;;44.83;9.18;;;11.60;99.90;;;;;;5084561;28;20071;-61
2022/05/14 05:26:43;;;;;;;42.20;9.10;;;11.80;99.90;;;;;;5084689;28;20092;-61
2022/05/14 05:29:09;;;;;;;36.05;8.80;;;12.00;99.90;;;;;;5091654;28;20482;-61
2022/05/14 05:31:35;;;;;;;36.47;8.07;;;12.40;99.90;;;;;;5095805;28;20505;-62
2022/05/14 05:34:02;;;;;;;31.65;8.13;;;12.70;99.90;;;;;;5116215;28;20119;-62
2022/05/14 05:36:30;;;;;;;34.22;7.45;;;12.90;99.90;;;;;;5099131;28;20066;-62
2022/05/14 05:38:55;;;;;;;31.88;7.90;;;13.10;99.90;;;;;;5118272;27;20405;-62
2022/05/14 05:41:22;;;;;;;35.90;8.13;;;13.30;99.90;;;;;;5100863;27;20043;-61
2022/05/14 05:43:48;;;;;;;32.80;6.82;;;13.50;99.90;;;;;;5100543;27;20047;-61
2022/05/14 05:46:14;;;;;;;35.92;7.20;;;13.70;99.90;;;;;;5120969;27;20043;-61
2022/05/14 05:48:41;;;;;;;34.33;7.32;;;13.90;99.90;;;;;;5102437;27;20537;-62
2022/05/14 05:51:07;;;;;;;30.15;7.00;;;14.10;99.90;;;;;;5101288;27;20036;-62
2022/05/14 05:59:04;;;;;;;25.33;6.05;;;14.40;99.90;;;;;;5118743;27;20088;-63
2022/05/14 06:01:30;;;;;;;27.27;6.63;;;14.40;99.90;;;;;;5098489;27;20058;-61
2022/05/14 06:03:56;;;;;;;26.58;6.30;;;14.50;99.90;;;;;;5101996;27;20052;-62
2022/05/14 06:06:21;;;;;;;30.63;6.43;;;14.60;99.90;;;;;;5100750;27;20095;-61
2022/05/14 06:08:48;;;;;;;31.90;6.22;;;14.70;99.90;;;;;;5101094;28;20096;-61
2022/05/14 06:11:15;;;;;;;26.17;5.85;;;14.70;99.90;;;;;;5099496;27;20091;-62
2022/05/14 06:13:42;;;;;;;29.63;7.13;;;14.70;99.90;;;;;;5087226;27;20058;-61
2022/05/14 06:16:12;;;;;;;27.20;6.50;;;14.90;99.90;;;;;;5103252;27;20058;-63
2022/05/14 06:18:39;;;;;;;30.77;6.63;;;15.00;99.90;;;;;;5123746;27;20061;-61
2022/05/14 06:21:06;;;;;;;23.13;4.65;;;15.10;99.90;;;;;;5083479;27;20070;-60
2022/05/14 06:23:32;;;;;;;25.27;5.70;;;15.20;99.90;;;;;;5103427;27;20046;-61
2022/05/14 06:25:58;;;;;;;23.38;5.35;;;15.30;99.90;;;;;;5084452;27;20051;-60
2022/05/14 06:28:24;;;;;;;24.42;5.57;;;15.30;99.90;;;;;;5101253;27;20047;-61
2022/05/14 06:30:49;;;;;;;27.33;5.70;;;15.20;99.90;;;;;;5066921;27;20454;-60
2022/05/14 06:33:16;;;;;;;29.00;6.28;;;15.50;99.90;;;;;;5084942;27;20039;-61
2022/05/14 06:35:43;;;;;;;23.88;4.85;;;15.70;99.90;;;;;;5101588;27;20111;-61
2022/05/14 06:38:09;;;;;;;19.65;5.20;;;15.80;99.90;;;;;;5099190;27;20035;-61
2022/05/14 06:40:36;;;;;;;22.67;5.00;;;15.90;99.90;;;;;;5097890;27;20486;-61
2022/05/14 06:43:03;;;;;;;28.33;5.88;;;15.70;99.90;;;;;;5123987;27;20039;-60
2022/05/14 06:45:30;;;;;;;26.02;5.95;;;15.30;99.90;;;;;;5093136;27;20078;-61
2022/05/14 06:47:55;;;;;;;24.45;5.30;;;15.10;99.90;;;;;;5102173;27;20107;-61
2022/05/14 06:50:21;;;;;;;24.00;4.82;;;14.90;99.90;;;;;;5102078;27;20540;-61
2022/05/14 06:52:51;;;;;;;25.60;5.32;;;15.00;99.90;;;;;;5099018;27;20047;-61
2022/05/14 06:55:25;;;;;;;21.70;4.63;;;15.20;99.90;;;;;;5101573;27;20053;-61
2022/05/14 06:57:52;;;;;;;25.77;5.57;;;15.30;99.90;;;;;;5119311;27;20032;-61
2022/05/14 07:00:19;;;;;;;23.30;5.07;;;15.50;99.90;;;;;;5067673;27;20039;-61
2022/05/14 07:02:46;;;;;;;23.77;5.30;;;15.60;99.90;;;;;;5102282;27;20043;-61
2022/05/14 07:07:58;;;;;;;20.33;4.20;;;15.90;99.90;;;;;;5080946;28;20043;-61
2022/05/14 07:10:24;;;;;;;22.80;4.82;;;16.20;99.90;;;;;;5101216;27;20047;-60
2022/05/14 07:12:50;;;;;;;17.63;4.07;;;16.30;99.90;;;;;;5100647;27;20408;-60
2022/05/14 07:15:15;;;;;;;19.02;4.13;;;16.50;99.90;;;;;;5078289;27;20040;-62
2022/05/14 07:17:41;;;;;;;20.05;4.25;;;16.40;99.90;;;;;;5095015;28;20039;-62
2022/05/14 07:20:08;;;;;;;22.42;4.75;;;16.40;99.90;;;;;;5087378;27;20054;-61
2022/05/14 07:22:34;;;;;;;21.73;4.55;;;16.40;99.90;;;;;;5078696;27;20036;-62
2022/05/14 07:24:59;;;;;;;22.08;4.35;;;16.60;99.90;;;;;;5100834;27;20046;-60
2022/05/14 07:27:25;;;;;;;24.88;4.50;;;16.50;99.90;;;;;;5081188;27;20126;-60
2022/05/14 07:29:51;;;;;;;20.42;4.53;;;16.10;99.90;;;;;;5102963;27;20049;-61
2022/05/14 07:32:19;;;;;;;14.07;2.90;;;16.40;99.90;;;;;;5105762;27;20051;-61
2022/05/14 07:34:46;;;;;;;17.38;3.47;;;16.70;99.90;;;;;;5116154;27;20043;-62
2022/05/14 07:37:22;;;;;;;12.70;2.90;;;16.50;99.90;;;;;;5100173;27;20416;-61
2022/05/14 07:39:50;;;;;;;12.65;2.20;;;16.50;99.90;;;;;;5103638;27;20100;-61
2022/05/14 07:42:24;;;;;;;17.33;2.65;;;16.70;99.90;;;;;;5104874;27;20039;-60
2022/05/14 07:44:53;;;;;;;13.15;2.83;;;16.80;99.90;;;;;;5100877;28;20042;-59
2022/05/14 07:47:19;;;;;;;17.38;2.65;;;17.00;99.90;;;;;;5116124;27;20108;-60
2022/05/14 07:49:48;;;;;;;12.93;2.78;;;17.00;99.90;;;;;;5116877;27;20077;-60
2022/05/14 07:52:15;;;;;;;15.85;3.10;;;16.80;99.90;;;;;;5121541;27;20620;-60
2022/05/14 07:54:41;;;;;;;14.70;2.72;;;17.10;99.90;;;;;;5112622;27;20055;-60
2022/05/14 07:57:07;;;;;;;13.75;2.83;;;17.30;99.90;;;;;;5112236;27;20043;-60
2022/05/14 07:59:36;;;;;;;14.82;3.05;;;17.30;99.90;;;;;;5112126;27;20035;-60
2022/05/14 08:02:05;;;;;;;18.55;2.95;;;17.10;99.90;;;;;;5111922;27;20481;-60
2022/05/14 08:04:32;;;;;;;14.10;2.53;;;16.80;99.90;;;;;;5078337;28;20047;-61
2022/05/14 08:06:58;;;;;;;13.20;3.58;;;17.40;99.90;;;;;;5130584;27;20520;-60
2022/05/14 08:09:24;;;;;;;12.65;2.70;;;17.30;99.90;;;;;;5112005;27;20046;-60
2022/05/14 08:11:52;;;;;;;14.23;2.65;;;17.90;99.90;;;;;;5111631;27;20104;-60
2022/05/14 08:14:18;;;;;;;18.63;3.47;;;17.90;99.90;;;;;;5112334;27;20055;-60
2022/05/14 08:16:43;;;;;;;15.02;3.08;;;17.60;99.90;;;;;;5112268;27;20047;-61
2022/05/14 08:19:09;;;;;;;14.77;2.97;;;18.30;99.90;;;;;;5094693;27;20081;-60
2022/05/14 08:24:34;;;;;;;12.10;3.28;;;18.00;99.90;;;;;;5111954;27;20055;-61
2022/05/14 08:27:06;;;;;;;11.60;3.00;;;18.20;99.90;;;;;;5114101;27;20043;-60
2022/05/14 08:29:33;;;;;;;14.07;3.60;;;18.60;99.90;;;;;;5094456;27;20050;-61
2022/05/14 08:31:58;;;;;;;15.48;3.40;;;19.10;99.90;;;;;;5111893;28;20039;-61
2022/05/14 08:34:24;;;;;;;14.27;3.00;;;19.00;99.90;;;;;;5112039;28;20481;-61
2022/05/14 08:36:50;;;;;;;15.40;3.60;;;19.20;99.90;;;;;;5111758;28;20502;-61
2022/05/14 08:39:16;;;;;;;12.75;3.30;;;19.10;99.90;;;;;;5111390;28;20039;-61
2022/05/14 08:41:47;;;;;;;17.58;3.35;;;19.00;99.90;;;;;;5129975;28;20043;-61
2022/05/14 08:44:19;;;;;;;12.98;2.65;;;19.10;99.90;;;;;;5111647;28;20035;-61
2022/05/14 08:46:46;;;;;;;13.35;3.25;;;19.30;99.90;;;;;;5130384;28;20626;-61
2022/05/14 08:49:31;;;;;;;14.05;3.30;;;19.00;99.90;;;;;;5130098;28;20575;-61
2022/05/14 08:51:57;;;;;;;12.55;3.08;;;19.40;99.90;;;;;;5111390;28;20067;-62
2022/05/14 08:54:23;;;;;;;13.63;2.88;;;19.30;99.90;;;;;;5129896;28;20475;-61
2022/05/14 08:56:58;;;;;;;11.90;2.55;;;19.30;99.90;;;;;;5130267;28;20039;-61
2022/05/14 08:59:55;;;;;;;12.50;3.13;;;19.50;99.90;;;;;;5111533;28;20122;-61
2022/05/14 09:02:26;;;;;;;14.25;3.13;;;19.80;99.80;;;;;;5111547;28;20051;-61
2022/05/14 09:04:57;;;;;;;15.52;3.47;;;19.40;99.90;;;;;;5111642;28;20507;-60
2022/05/14 09:07:23;;;;;;;17.30;3.35;;;19.90;99.90;;;;;;5111535;28;20400;-61
2022/05/14 09:09:51;;;;;;;12.93;3.30;;;19.80;99.90;;;;;;5094360;28;20039;-60
2022/05/14 09:12:20;;;;;;;17.60;3.75;;;19.70;98.50;;;;;;5111154;28;20043;-61
2022/05/14 09:14:51;;;;;;;14.80;3.15;;;19.20;99.90;;;;;;5115538;27;20519;-61
2022/05/14 09:17:20;;;;;;;18.20;3.60;;;19.00;99.90;;;;;;5115040;27;20119;-61
2022/05/14 09:19:50;;;;;;;16.30;3.97;;;18.40;99.90;;;;;;5115548;27;20047;-61
2022/05/14 09:22:30;;;;;;;16.70;3.65;;;18.60;99.90;;;;;;5098409;27;20078;-62
2022/05/14 09:25:05;;;;;;;15.32;3.22;;;18.90;99.90;;;;;;5098667;27;20054;-61
2022/05/14 09:27:45;;;;;;;16.48;3.13;;;19.30;99.90;;;;;;5115046;27;20042;-60
2022/05/14 09:30:21;;;;;;;16.30;3.63;;;19.60;99.30;;;;;;5115163;27;20204;-60
2022/05/14 09:32:47;;;;;;;12.43;3.00;;;19.80;97.50;;;;;;5115145;27;20043;-60
2022/05/14 09:35:19;;;;;;;14.27;3.08;;;20.00;97.60;;;;;;5133646;27;20542;-61
2022/05/14 09:37:45;;;;;;;16.58;4.32;;;19.40;99.60;;;;;;5115073;27;20057;-61
2022/05/14 09:40:24;;;;;;;14.80;3.38;;;19.80;98.90;;;;;;5097567;27;20042;-61
2022/05/14 09:42:53;;;;;;;14.15;3.60;;;20.00;96.60;;;;;;5115137;27;20074;-61
2022/05/14 09:45:37;;;;;;;16.15;3.53;;;20.00;98.00;;;;;;5097818;27;20039;-62
2022/05/14 09:48:19;;;;;;;16.25;3.95;;;20.40;97.50;;;;;;5114922;27;20050;-62
2022/05/14 09:50:55;;;;;;;14.55;3.30;;;20.60;97.30;;;;;;5114609;27;20062;-62
2022/05/14 09:53:33;;;;;;;16.23;3.40;;;20.50;95.90;;;;;;5114495;27;20516;-61
2022/05/14 09:56:08;;;;;;;15.75;3.33;;;20.00;96.70;;;;;;5115227;27;20039;-62
2022/05/14 09:58:58;;;;;;;16.67;3.63;;;20.20;94.50;;;;;;5114880;27;20070;-62
2022/05/14 10:01:36;;;;;;;17.25;3.92;;;20.70;95.80;;;;;;5097710;27;20413;-61
2022/05/14 10:04:39;;;;;;;14.68;3.38;;;20.90;97.60;;;;;;5097828;27;20053;-62
2022/05/14 10:07:22;;;;;;;15.85;3.35;;;21.10;91.20;;;;;;5114611;27;20043;-61
2022/05/14 10:10:01;;;;;;;20.27;4.45;;;21.60;89.60;;;;;;5132965;27;20592;-61
2022/05/14 10:12:33;;;;;;;13.23;3.30;;;21.80;89.00;;;;;;5132721;27;20039;-61
2022/05/14 10:15:23;;;;;;;15.00;4.10;;;21.40;91.80;;;;;;5132022;27;20082;-62
2022/05/14 10:17:52;;;;;;;15.85;3.85;;;21.10;89.00;;;;;;5132361;27;20039;-61
2022/05/14 10:20:33;;;;;;;15.75;3.80;;;21.80;86.80;;;;;;5114227;27;20039;-61
2022/05/14 10:29:40;;;;;;;16.13;4.53;;;21.50;82.40;;;;;;5114445;27;20377;-61
2022/05/14 10:32:29;;;;;;;17.90;5.28;;;21.60;86.20;;;;;;5100350;27;20486;-60
2022/05/14 10:35:15;;;;;;;17.38;3.85;;;21.60;83.20;;;;;;5114011;27;20046;-60
2022/05/14 10:37:52;;;;;;;19.20;4.05;;;21.60;84.50;;;;;;5114065;27;20047;-60
2022/05/14 10:40:46;;;;;;;15.50;4.60;;;20.90;86.80;;;;;;5113917;27;20106;-60
2022/05/14 10:43:49;;;;;;;18.52;4.45;;;20.50;89.20;;;;;;5113767;27;20043;-60
2022/05/14 10:46:20;;;;;;;18.48;5.30;;;19.70;91.00;;;;;;5096838;27;20051;-60
2022/05/14 10:49:00;;;;;;;22.27;4.47;;;20.20;91.10;;;;;;5113793;27;20113;-60
2022/05/14 10:51:29;;;;;;;14.88;3.40;;;20.70;91.90;;;;;;5113781;27;20047;-62
2022/05/14 10:53:58;;;;;;;16.65;3.70;;;20.50;91.00;;;;;;5113577;27;20469;-62
2022/05/14 10:56:28;;;;;;;18.98;3.97;;;19.90;92.20;;;;;;5072719;27;20046;-62
2022/05/14 10:59:06;;;;;;;17.35;3.33;;;20.00;93.90;;;;;;5097274;28;20042;-61
2022/05/14 11:01:46;;;;;;;18.80;4.22;;;21.00;91.70;;;;;;5082678;27;20050;-63
2022/05/14 11:04:36;;;;;;;17.13;3.45;;;21.80;87.90;;;;;;5098035;28;20046;-62
2022/05/14 11:07:16;;;;;;;14.82;4.03;;;21.40;86.70;;;;;;5116088;27;20058;-63
2022/05/14 11:09:44;;;;;;;17.27;4.00;;;21.60;87.00;;;;;;5118802;27;20045;-62
2022/05/14 11:12:19;;;;;;;18.58;3.90;;;21.50;84.60;;;;;;5096733;27;20051;-62
2022/05/14 11:14:53;;;;;;;16.75;4.38;;;21.10;89.40;;;;;;5119133;27;20038;-62
2022/05/14 11:17:23;;;;;;;17.20;4.15;;;21.90;85.90;;;;;;5077472;27;20495;-61
2022/05/14 11:19:51;;;;;;;15.90;4.57;;;21.60;86.30;;;;;;5096545;28;20038;-61
2022/05/14 11:22:29;;;;;;;19.00;4.32;;;22.60;80.20;;;;;;5099049;27;20409;-61
2022/05/14 11:24:55;;;;;;;18.92;4.95;;;22.20;80.00;;;;;;5100550;27;20039;-63
2022/05/14 11:27:28;;;;;;;15.70;4.10;;;22.00;82.40;;;;;;5078563;27;20065;-62
2022/05/14 11:30:13;;;;;;;19.55;4.07;;;22.40;84.60;;;;;;5101820;27;20366;-62
2022/05/14 11:32:41;;;;;;;18.95;4.07;;;23.00;82.20;;;;;;5096782;27;20035;-62
2022/05/14 11:35:08;;;;;;;14.98;4.10;;;22.70;75.30;;;;;;5094809;28;20088;-62
2022/05/14 11:37:37;;;;;;;19.65;4.57;;;21.90;74.30;;;;;;5096166;27;20040;-60
2022/05/14 11:40:27;;;;;;;21.65;5.22;;;22.50;74.30;;;;;;5122060;27;20030;-61
2022/05/14 11:43:07;;;;;;;18.77;4.47;;;21.70;75.30;;;;;;5092575;28;20046;-62
2022/05/14 11:45:34;;;;;;;16.95;4.38;;;21.50;76.70;;;;;;5100336;27;20050;-60
2022/05/14 11:48:02;;;;;;;17.38;4.43;;;21.60;76.50;;;;;;5120269;27;20039;-61
2022/05/14 11:51:14;;;;;;;19.48;4.03;;;21.50;78.10;;;;;;5104350;27;20039;-61
2022/05/14 11:53:44;;;;;;;18.20;5.45;;;22.40;77.50;;;;;;5061726;27;20048;-61
2022/05/14 11:56:17;;;;;;;17.52;4.55;;;22.90;74.40;;;;;;5080486;27;20043;-62
2022/05/14 11:58:55;;;;;;;15.20;3.95;;;22.80;70.60;;;;;;5099514;27;20039;-62
2022/05/14 12:01:25;;;;;;;17.13;4.20;;;22.70;73.00;;;;;;5099188;27;20558;-62
2022/05/14 12:03:54;;;;;;;13.85;3.67;;;23.10;68.20;;;;;;5097990;27;20059;-62
2022/05/14 12:06:52;;;;;;;15.65;3.80;;;22.10;68.80;;;;;;5097123;28;20086;-61
2022/05/14 12:09:18;;;;;;;18.45;4.20;;;22.30;72.80;;;;;;5097311;27;20634;-61
2022/05/14 12:12:08;;;;;;;19.23;4.05;;;22.90;69.20;;;;;;5085980;27;20121;-61
2022/05/14 12:14:36;;;;;;;18.10;4.88;;;22.30;69.80;;;;;;5099711;27;20092;-61
2022/05/14 12:17:06;;;;;;;19.98;4.70;;;22.30;71.10;;;;;;5081517;27;20043;-61
2022/05/14 12:19:40;;;;;;;15.30;3.92;;;21.80;70.50;;;;;;5076179;27;20075;-61
2022/05/14 12:22:30;;;;;;;16.60;4.32;;;22.00;70.40;;;;;;5064225;27;20344;-62
2022/05/14 12:25:08;;;;;;;18.00;4.45;;;22.40;65.70;;;;;;5094830;28;20103;-61
2022/05/14 12:27:43;;;;;;;14.63;3.92;;;22.10;66.50;;;;;;5102455;27;20078;-62
2022/05/14 12:30:12;;;;;;;17.52;4.20;;;21.90;68.80;;;;;;5114126;28;20088;-62
2022/05/14 12:35:33;;;;;;;15.98;3.70;;;22.30;72.20;;;;;;5084954;28;20131;-62
2022/05/14 12:38:02;;;;;;;15.05;4.05;;;22.40;69.80;;;;;;5075769;28;20119;-61
2022/05/14 12:40:30;;;;;;;18.42;4.60;;;22.10;69.40;;;;;;5080551;28;20078;-63
2022/05/14 12:42:58;;;;;;;18.67;4.30;;;22.50;68.10;;;;;;5079627;28;20149;-61
2022/05/14 12:45:40;;;;;;;17.33;4.22;;;22.50;67.10;;;;;;5080060;28;20126;-63
2022/05/14 12:48:08;;;;;;;18.52;4.53;;;22.50;66.70;;;;;;5099211;27;20042;-62
2022/05/14 12:50:34;;;;;;;17.60;4.40;;;22.70;67.70;;;;;;5085487;28;20460;-61
2022/05/14 12:53:05;;;;;;;16.15;4.00;;;22.80;68.20;;;;;;5081379;28;20083;-61
2022/05/14 12:55:36;;;;;;;20.02;4.40;;;22.70;67.70;;;;;;5095788;28;20125;-61
2022/05/14 12:58:03;;;;;;;20.27;4.53;;;22.70;66.90;;;;;;5079711;28;20401;-61
2022/05/14 13:00:37;;;;;;;16.50;4.00;;;23.00;67.40;;;;;;5097803;27;20043;-62
2022/05/14 13:03:13;;;;;;;18.92;4.47;;;23.80;66.00;;;;;;5084717;27;20040;-62
2022/05/14 13:05:45;;;;;;;20.10;4.32;;;23.60;62.30;;;;;;5097094;27;20421;-63
2022/05/14 13:08:14;;;;;;;16.98;3.95;;;23.00;62.60;;;;;;5083623;27;20030;-61
2022/05/14 13:10:50;;;;;;;17.90;4.60;;;23.00;63.50;;;;;;5101041;27;20445;-62
2022/05/14 13:13:17;;;;;;;16.75;4.47;;;22.10;64.80;;;;;;5100341;27;20063;-60
2022/05/14 13:15:53;;;;;;;18.30;4.50;;;22.90;65.50;;;;;;5120909;27;20063;-61
2022/05/14 13:18:33;;;;;;;16.10;4.45;;;23.20;61.30;;;;;;5084116;27;20561;-60